Abergavenny, United Kingdom
Current Conditions -  °F | °C
As of 6:20 AM on Monday 26 Jan 2015 (Local Time) from EGFF Reporting Station
Haze Haze  
Wind Chill: 42°   Ceiling: 200
Heat Index: 48°   Visibility: 2.5mi
Dew Point: 48°   Wind: 16mph
Humidity: 100%   Direction: 270°W
Pressure: 30.18"   Gusts: NA
Location:  51.82°N, 3.02°W
Report Text: EGFF 260620Z AUTO 27014KT 4000 BR OVC002 09/09 Q1022 RERA REDZ
Loading
Personal Weather Stations






























Interactive Weather Map New forecast layout! Learn more

10-Day Weather Forecast

Advertisements
Track Severe Weather on mobile